createdAt,value
2024-03-11T00:04:25.143Z,28.42
2024-03-11T00:09:33.322Z,23.97
2024-03-11T00:14:36.013Z,25.98
2024-03-11T00:19:40.107Z,28.45
2024-03-11T00:24:44.172Z,27.07
2024-03-11T00:29:46.817Z,23.73
2024-03-11T00:34:52.491Z,27.80
2024-03-11T00:39:55.033Z,26.67
2024-03-11T00:44:58.421Z,25.77
2024-03-11T00:50:02.329Z,28.42
2024-03-11T00:55:07.763Z,27.88
2024-03-11T01:00:12.837Z,27.73
2024-03-11T01:05:17.949Z,28.38
2024-03-11T01:10:21.103Z,28.55
2024-03-11T01:15:23.689Z,25.60
2024-03-11T01:20:27.675Z,24.40
2024-03-11T01:25:30.212Z,26.40
2024-03-11T01:30:36.090Z,24.03
2024-03-11T01:35:42.542Z,26.13
2024-03-11T01:40:45.182Z,27.35
2024-03-11T01:45:47.737Z,27.73
2024-03-11T01:50:51.783Z,26.87
2024-03-11T01:55:54.437Z,25.63
2024-03-11T02:00:57.642Z,25.63
2024-03-11T02:06:01.487Z,27.67
2024-03-11T02:11:04.097Z,27.55
2024-03-11T02:16:07.365Z,27.23
2024-03-11T02:21:12.508Z,25.60
2024-03-11T02:26:17.301Z,26.17
2024-03-11T02:31:19.873Z,28.50
2024-03-11T02:36:23.391Z,27.52
2024-03-11T02:41:27.344Z,26.30
2024-03-11T02:46:29.888Z,23.30
2024-03-11T02:51:32.506Z,26.98
2024-03-11T02:56:36.461Z,25.70
2024-03-11T03:01:39.502Z,27.58
2024-03-11T03:06:42.021Z,25.63
2024-03-11T03:11:46.008Z,24.83
2024-03-11T03:16:48.562Z,24.20
2024-03-11T03:21:51.139Z,26.40
2024-03-11T03:26:55.455Z,24.98
2024-03-11T03:31:58.598Z,24.87
2024-03-11T03:37:01.142Z,25.08
2024-03-11T03:42:06.379Z,24.00
2024-03-11T03:47:09.064Z,27.80
2024-03-11T03:52:11.640Z,25.27
2024-03-11T03:57:16.711Z,23.73
2024-03-11T04:02:19.269Z,25.00
2024-03-11T04:07:21.844Z,22.63
2024-03-11T04:12:25.750Z,24.17
2024-03-11T04:17:28.319Z,24.58
2024-03-11T04:22:30.885Z,21.83
2024-03-11T04:27:35.920Z,22.02
2024-03-11T04:32:38.502Z,21.52
2024-03-11T04:37:41.324Z,21.80
2024-03-11T04:42:45.185Z,24.88
2024-03-11T04:47:47.931Z,21.35
2024-03-11T04:52:50.513Z,26.07
2024-03-11T04:57:54.628Z,26.10
2024-03-11T05:02:57.934Z,22.48
2024-03-11T05:08:00.473Z,25.02
2024-03-11T05:13:05.399Z,27.97
2024-03-11T05:18:08.988Z,28.23
2024-03-11T05:23:11.760Z,22.98
2024-03-11T05:28:15.683Z,24.90
2024-03-11T05:33:18.681Z,25.67
2024-03-11T05:38:21.298Z,26.27
2024-03-11T05:43:25.147Z,23.87
2024-03-11T05:48:27.740Z,24.30
2024-03-11T05:53:30.610Z,21.33
2024-03-11T05:58:34.492Z,25.20
2024-03-11T06:03:37.575Z,22.90
2024-03-11T06:08:40.705Z,23.20
2024-03-11T06:13:44.718Z,24.27
2024-03-11T06:18:47.564Z,24.30
2024-03-11T06:23:50.997Z,22.63
2024-03-11T06:28:57.071Z,22.85
2024-03-11T06:33:59.623Z,22.57
2024-03-11T06:39:02.166Z,26.80
2024-03-11T06:44:07.761Z,26.63
2024-03-11T06:49:10.359Z,25.20
2024-03-11T06:54:13.108Z,27.10
2024-03-11T06:59:17.140Z,27.60
2024-03-11T07:04:21.427Z,25.75
2024-03-11T07:09:23.986Z,25.53
2024-03-11T07:14:27.925Z,29.77
2024-03-11T07:19:31.896Z,26.00
2024-03-11T07:24:35.054Z,30.27
2024-03-11T07:29:39.044Z,25.10
2024-03-11T07:34:43.353Z,23.05
2024-03-11T07:39:46.174Z,27.13
2024-03-11T07:44:50.164Z,26.13
2024-03-11T07:49:55.052Z,27.15
2024-03-11T07:54:57.584Z,23.83
2024-03-11T08:00:02.105Z,25.80
2024-03-11T08:05:05.116Z,22.20
2024-03-11T08:10:10.670Z,25.55
2024-03-11T08:15:15.852Z,32.27
2024-03-11T08:20:21.628Z,28.67
2024-03-11T08:25:28.892Z,28.95
2024-03-11T08:30:33.124Z,27.10
2024-03-11T08:35:35.720Z,26.70
2024-03-11T08:40:39.500Z,27.25
2024-03-11T08:45:43.682Z,26.42
2024-03-11T08:50:46.199Z,25.10
2024-03-11T08:55:49.951Z,24.70
2024-03-11T09:00:54.441Z,27.25
2024-03-11T09:05:57.580Z,27.70
2024-03-11T09:11:00.155Z,27.80
2024-03-11T09:16:05.709Z,26.77
2024-03-11T09:21:09.590Z,26.27
2024-03-11T09:26:12.207Z,26.97
2024-03-11T09:31:18.144Z,29.13
2024-03-11T09:36:21.047Z,32.30
2024-03-11T09:41:24.029Z,36.87
2024-03-11T09:46:29.559Z,33.15
2024-03-11T09:51:32.642Z,35.55
2024-03-11T09:56:36.480Z,39.97
2024-03-11T10:01:45.503Z,41.53
2024-03-11T10:06:57.609Z,38.90
2024-03-11T10:12:05.843Z,37.35
2024-03-11T10:17:25.130Z,39.07
2024-03-11T10:22:29.533Z,39.45
2024-03-11T10:27:34.585Z,37.08
2024-03-11T10:32:43.044Z,38.43
2024-03-11T10:37:45.794Z,36.25
2024-03-11T10:42:54.679Z,39.03
2024-03-11T10:48:01.864Z,38.33
2024-03-11T10:53:05.094Z,39.83
2024-03-11T10:58:10.888Z,40.05
2024-03-11T11:03:15.756Z,38.90
2024-03-11T11:08:23.724Z,38.97
2024-03-11T11:13:27.593Z,39.53
2024-03-11T11:18:33.760Z,40.97
2024-03-11T11:23:39.018Z,43.73
2024-03-11T11:28:41.737Z,38.55
2024-03-11T11:33:54.637Z,40.63
2024-03-11T11:38:59.394Z,39.03
2024-03-11T11:44:01.948Z,38.97
2024-03-11T11:49:18.562Z,39.28
2024-03-11T11:54:34.530Z,35.13
2024-03-11T11:59:41.629Z,38.93
2024-03-11T12:04:49.787Z,44.25
2024-03-11T12:09:53.804Z,41.72
2024-03-11T12:15:00.404Z,41.20
2024-03-11T12:20:16.161Z,46.13
2024-03-11T12:25:19.231Z,39.75
2024-03-11T12:30:25.796Z,43.67
2024-03-11T12:35:30.299Z,43.03
2024-03-11T12:40:35.974Z,42.08
2024-03-11T12:45:43.590Z,39.50
2024-03-11T12:50:48.826Z,42.63
2024-03-11T12:56:02.402Z,44.58
2024-03-11T13:01:10.699Z,43.58
2024-03-11T13:06:20.003Z,42.57
2024-03-11T13:11:24.543Z,42.25
2024-03-11T13:16:27.994Z,45.75
2024-03-11T13:21:31.957Z,45.27
2024-03-11T13:26:34.496Z,44.50
2024-03-11T13:31:38.042Z,39.90
2024-03-11T13:36:42.051Z,42.58
2024-03-11T13:41:49.934Z,43.37
2024-03-11T13:46:55.467Z,46.70
2024-03-11T13:52:01.511Z,46.63
2024-03-11T13:57:04.315Z,43.90
2024-03-11T14:02:08.219Z,43.58
2024-03-11T14:07:12.176Z,43.45
2024-03-11T14:12:14.743Z,45.37
2024-03-11T14:17:17.799Z,51.47
2024-03-11T14:22:22.873Z,44.20
2024-03-11T14:27:28.216Z,50.28
2024-03-11T14:32:31.547Z,46.70
2024-03-11T14:37:35.449Z,54.47
2024-03-11T14:42:40.666Z,45.17
2024-03-11T14:47:46.627Z,52.67
2024-03-11T14:52:50.988Z,58.85
2024-03-11T14:57:54.801Z,47.42
2024-03-11T15:02:57.472Z,52.33
2024-03-11T15:08:02.210Z,44.37
2024-03-11T15:13:06.056Z,56.95
2024-03-11T15:18:11.180Z,65.78
2024-03-11T15:23:15.216Z,71.03
2024-03-11T15:28:19.076Z,49.97
2024-03-11T15:33:22.801Z,50.03
2024-03-11T15:38:28.834Z,49.63
2024-03-11T15:43:31.827Z,84.05
2024-03-11T15:48:35.706Z,59.88
2024-03-11T15:53:41.443Z,117.60
2024-03-11T15:58:45.131Z,49.97
2024-03-11T16:03:47.826Z,47.10
2024-03-11T16:08:52.089Z,46.78
2024-03-11T16:13:57.683Z,46.67
2024-03-11T16:19:01.543Z,133.95
2024-03-11T16:24:05.655Z,72.93
2024-03-11T16:29:08.308Z,52.33
2024-03-11T16:34:11.615Z,46.47
2024-03-11T16:39:16.959Z,46.15
2024-03-11T16:44:19.935Z,46.70
2024-03-11T16:49:25.549Z,93.53
2024-03-11T16:54:29.824Z,55.97
2024-03-11T16:59:32.392Z,64.20
2024-03-11T17:04:34.906Z,59.43
2024-03-11T17:09:40.833Z,51.50
2024-03-11T17:14:43.420Z,48.50
2024-03-11T17:19:46.355Z,53.83
2024-03-11T17:24:50.264Z,52.90
2024-03-11T17:29:53.099Z,51.85
2024-03-11T17:34:55.647Z,54.93
2024-03-11T17:39:59.630Z,56.93
2024-03-11T17:45:02.393Z,57.40
2024-03-11T17:50:08.219Z,56.50
2024-03-11T17:55:15.445Z,58.57
2024-03-11T18:00:25.191Z,58.95
2024-03-11T18:05:29.047Z,80.28
2024-03-11T18:10:35.014Z,59.17
2024-03-11T18:15:37.647Z,63.40
2024-03-11T18:20:42.173Z,49.58
2024-03-11T18:25:51.060Z,46.23
2024-03-11T18:30:55.915Z,54.13
2024-03-11T18:35:59.475Z,52.08
2024-03-11T18:41:03.451Z,46.55
2024-03-11T18:46:06.616Z,49.57
2024-03-11T18:51:09.250Z,49.88
2024-03-11T18:56:16.522Z,51.60
2024-03-11T19:01:22.237Z,50.27
2024-03-11T19:06:25.818Z,50.85
2024-03-11T19:11:30.633Z,46.78
2024-03-11T19:16:33.831Z,51.47
2024-03-11T19:21:39.311Z,50.67
2024-03-11T19:26:43.402Z,48.53
2024-03-11T19:31:46.021Z,47.63
2024-03-11T19:37:25.236Z,54.43
2024-03-11T19:42:57.144Z,52.53
2024-03-11T19:48:32.746Z,52.55
2024-03-11T19:54:21.651Z,60.00
2024-03-11T19:59:57.674Z,56.97
2024-03-11T20:05:27.934Z,56.88
2024-03-11T20:10:59.693Z,50.93
2024-03-11T20:16:48.935Z,55.13
2024-03-11T20:22:19.061Z,56.80
2024-03-11T20:27:34.058Z,60.03
2024-03-11T20:32:48.555Z,56.47
2024-03-11T20:37:54.621Z,55.70
2024-03-11T20:42:58.195Z,58.45
2024-03-11T20:48:01.044Z,51.47
2024-03-11T20:53:11.395Z,53.13
2024-03-11T20:58:14.135Z,51.70
2024-03-11T21:03:17.385Z,53.57
2024-03-11T21:08:21.348Z,58.80
2024-03-11T21:13:23.892Z,56.70
2024-03-11T21:18:26.444Z,56.00
2024-03-11T21:23:38.893Z,55.17
2024-03-11T21:28:41.443Z,62.83
2024-03-11T21:33:45.154Z,55.10
2024-03-11T21:38:49.298Z,56.93
2024-03-11T21:43:51.895Z,56.40
2024-03-11T21:48:54.445Z,59.00
2024-03-11T21:53:58.406Z,58.73
2024-03-11T21:59:00.923Z,58.80
2024-03-11T22:04:03.631Z,58.88
2024-03-11T22:09:11.044Z,62.20
2024-03-11T22:14:13.721Z,54.47
2024-03-11T22:19:16.968Z,63.28
2024-03-11T22:24:20.902Z,61.65
2024-03-11T22:29:23.450Z,65.13
2024-03-11T22:34:25.986Z,61.25
2024-03-11T22:39:30.104Z,66.28
2024-03-11T22:44:32.729Z,63.80
2024-03-11T22:49:35.815Z,61.13
2024-03-11T22:54:39.896Z,64.38
2024-03-11T22:59:42.531Z,63.92
2024-03-11T23:04:49.414Z,58.63
2024-03-11T23:09:53.563Z,56.65
2024-03-11T23:14:56.994Z,62.42
2024-03-11T23:19:59.539Z,58.47
2024-03-11T23:25:04.859Z,58.58
2024-03-11T23:30:14.246Z,61.70
2024-03-11T23:35:17.097Z,62.20
2024-03-11T23:40:21.228Z,55.07
2024-03-11T23:45:24.367Z,62.20
2024-03-11T23:50:27.444Z,61.75
2024-03-11T23:55:31.314Z,61.60
